createdAt,value
2023-05-21T00:00:19.109Z,32.33
2023-05-21T00:01:19.136Z,32.43
2023-05-21T00:02:19.194Z,32.31
2023-05-21T00:03:19.241Z,32.37
2023-05-21T00:04:19.212Z,32.36
2023-05-21T00:05:19.207Z,32.31
2023-05-21T00:06:19.249Z,32.36
2023-05-21T00:07:19.233Z,32.42
2023-05-21T00:08:19.238Z,32.33
2023-05-21T00:09:19.254Z,32.37
2023-05-21T00:10:19.264Z,32.37
2023-05-21T00:11:19.273Z,32.34
2023-05-21T00:12:19.277Z,32.31
2023-05-21T00:13:19.272Z,32.35
2023-05-21T00:14:19.266Z,32.31
2023-05-21T00:15:19.269Z,32.38
2023-05-21T00:16:19.334Z,32.34
2023-05-21T00:17:19.310Z,32.32
2023-05-21T00:18:19.298Z,32.34
2023-05-21T00:19:19.363Z,32.28
2023-05-21T00:20:19.345Z,32.28
2023-05-21T00:21:19.367Z,32.30
2023-05-21T00:22:19.378Z,32.26
2023-05-21T00:23:19.448Z,32.35
2023-05-21T00:24:19.432Z,32.29
2023-05-21T00:25:19.464Z,32.30
2023-05-21T00:26:19.496Z,32.33
2023-05-21T00:27:19.523Z,32.29
2023-05-21T00:28:19.519Z,32.28
2023-05-21T00:29:19.512Z,32.30
2023-05-21T00:30:19.510Z,32.33
2023-05-21T00:31:19.558Z,32.31
2023-05-21T00:32:19.522Z,32.34
2023-05-21T00:33:19.512Z,32.34
2023-05-21T00:34:19.539Z,32.37
2023-05-21T00:35:19.561Z,32.37
2023-05-21T00:36:19.572Z,32.33
2023-05-21T00:37:19.549Z,32.37
2023-05-21T00:38:19.553Z,32.37
2023-05-21T00:39:19.553Z,32.40
2023-05-21T00:40:19.579Z,32.37
2023-05-21T00:41:19.610Z,32.38
2023-05-21T00:42:19.624Z,32.37
2023-05-21T00:43:19.641Z,32.37
2023-05-21T00:44:19.689Z,32.33
2023-05-21T00:45:19.683Z,32.33
2023-05-21T00:46:19.854Z,32.34
2023-05-21T00:47:19.759Z,32.44
2023-05-21T00:48:19.800Z,32.31
2023-05-21T00:49:19.826Z,32.41
2023-05-21T00:50:19.868Z,32.35
2023-05-21T00:51:19.898Z,32.38
2023-05-21T00:52:19.953Z,32.31
2023-05-21T00:53:19.991Z,32.33
2023-05-21T00:54:20.072Z,32.33
2023-05-21T00:55:20.100Z,32.37
2023-05-21T00:56:20.149Z,32.36
2023-05-21T00:57:20.153Z,32.42
2023-05-21T00:58:20.190Z,32.38
2023-05-21T00:59:20.187Z,32.38
2023-05-21T01:00:20.236Z,32.40
2023-05-21T01:01:20.316Z,32.38
2023-05-21T01:02:20.335Z,32.37
2023-05-21T01:03:20.334Z,32.35
2023-05-21T01:04:20.295Z,32.36
2023-05-21T01:05:20.349Z,32.35
2023-05-21T01:06:20.356Z,32.36
2023-05-21T01:07:20.397Z,32.37
2023-05-21T01:08:20.392Z,32.38
2023-05-21T01:09:20.428Z,32.38
2023-05-21T01:10:20.448Z,32.35
2023-05-21T01:11:20.483Z,32.34
2023-05-21T01:12:20.504Z,32.37
2023-05-21T01:13:20.510Z,32.37
2023-05-21T01:14:20.508Z,32.37
2023-05-21T01:15:20.501Z,32.40
2023-05-21T01:16:20.547Z,32.41
2023-05-21T01:17:20.574Z,32.40
2023-05-21T01:18:20.612Z,32.40
2023-05-21T01:19:20.610Z,32.38
2023-05-21T01:20:20.585Z,32.40
2023-05-21T01:21:20.603Z,32.42
2023-05-21T01:22:20.616Z,32.42
2023-05-21T01:23:20.634Z,32.41
2023-05-21T01:24:20.695Z,32.43
2023-05-21T01:25:20.725Z,32.38
2023-05-21T01:26:20.732Z,32.38
2023-05-21T01:27:20.760Z,32.33
2023-05-21T01:28:20.814Z,32.38
2023-05-21T01:29:20.842Z,32.38
2023-05-21T01:30:20.872Z,32.38
2023-05-21T01:31:20.874Z,32.38
2023-05-21T01:32:20.916Z,32.44
2023-05-21T01:33:20.993Z,32.42
2023-05-21T01:34:20.922Z,32.44
2023-05-21T01:35:20.986Z,32.42
2023-05-21T01:36:20.982Z,32.41
2023-05-21T01:37:20.965Z,32.42
2023-05-21T01:38:20.999Z,32.41
2023-05-21T01:39:21.007Z,32.37
2023-05-21T01:40:21.004Z,32.40
2023-05-21T01:41:21.041Z,32.35
2023-05-21T01:42:21.029Z,32.32
2023-05-21T01:43:21.042Z,32.38
2023-05-21T01:44:21.048Z,32.34
2023-05-21T01:45:21.055Z,32.38
2023-05-21T01:46:21.075Z,32.41
2023-05-21T01:47:21.174Z,32.38
2023-05-21T01:48:21.079Z,32.41
2023-05-21T01:49:21.078Z,32.36
2023-05-21T01:50:21.152Z,32.40
2023-05-21T01:51:21.147Z,32.39
2023-05-21T01:52:21.185Z,32.38
2023-05-21T01:53:21.195Z,32.45
2023-05-21T01:54:21.226Z,32.45
2023-05-21T01:55:21.221Z,32.41
2023-05-21T01:56:21.229Z,32.46
2023-05-21T01:57:21.293Z,32.46
2023-05-21T01:58:21.260Z,32.46
2023-05-21T01:59:21.334Z,32.46
2023-05-21T02:00:21.303Z,32.41
2023-05-21T02:01:21.349Z,32.42
2023-05-21T02:02:21.362Z,32.38
2023-05-21T02:03:21.516Z,32.38
2023-05-21T02:04:21.378Z,32.34
2023-05-21T02:05:21.408Z,32.37
2023-05-21T02:06:21.441Z,32.34
2023-05-21T02:07:21.451Z,32.37
2023-05-21T02:08:21.497Z,32.37
2023-05-21T02:09:21.515Z,32.43
2023-05-21T02:10:21.581Z,32.39
2023-05-21T02:11:21.521Z,32.41
2023-05-21T02:12:21.530Z,32.40
2023-05-21T02:13:23.547Z,32.42
2023-05-21T02:14:21.558Z,32.41
2023-05-21T02:15:21.551Z,32.42
2023-05-21T02:16:21.611Z,32.42
2023-05-21T02:17:21.533Z,32.40
2023-05-21T02:18:21.526Z,32.42
2023-05-21T02:19:21.600Z,32.45
2023-05-21T02:20:21.531Z,32.41
2023-05-21T02:21:21.509Z,32.43
2023-05-21T02:22:21.495Z,32.42
2023-05-21T02:23:21.498Z,32.40
2023-05-21T02:24:21.589Z,32.41
2023-05-21T02:25:21.497Z,32.45
2023-05-21T02:26:21.480Z,32.41
2023-05-21T02:27:21.468Z,32.41
2023-05-21T02:28:21.469Z,32.41
2023-05-21T02:29:21.452Z,32.36
2023-05-21T02:30:21.449Z,32.39
2023-05-21T02:31:21.464Z,32.42
2023-05-21T02:32:21.516Z,32.41
2023-05-21T02:33:21.422Z,32.40
2023-05-21T02:34:21.535Z,32.42
2023-05-21T02:35:21.412Z,32.45
2023-05-21T02:36:21.425Z,32.45
2023-05-21T02:37:21.398Z,32.46
2023-05-21T02:38:21.394Z,32.43
2023-05-21T02:39:21.386Z,32.47
2023-05-21T02:40:21.388Z,32.45
2023-05-21T02:41:21.372Z,32.43
2023-05-21T02:42:21.393Z,32.45
2023-05-21T02:43:21.355Z,32.45
2023-05-21T02:44:21.362Z,32.43
2023-05-21T02:45:21.373Z,32.32
2023-05-21T02:46:21.357Z,32.33
2023-05-21T02:47:21.326Z,32.41
2023-05-21T02:48:21.378Z,32.42
2023-05-21T02:49:21.309Z,32.39
2023-05-21T02:50:21.312Z,32.41
2023-05-21T02:51:21.304Z,32.41
2023-05-21T02:52:21.306Z,32.41
2023-05-21T02:53:21.285Z,32.32
2023-05-21T02:54:21.276Z,32.35
2023-05-21T02:55:21.292Z,32.35
2023-05-21T02:56:21.282Z,32.35
2023-05-21T02:57:21.269Z,32.32
2023-05-21T02:58:21.241Z,32.42
2023-05-21T02:59:21.278Z,32.39
2023-05-21T03:00:21.247Z,32.39
2023-05-21T03:01:21.295Z,32.35
2023-05-21T03:02:21.326Z,32.34
2023-05-21T03:03:21.293Z,32.34
2023-05-21T03:04:21.219Z,32.34
2023-05-21T03:05:21.213Z,32.37
2023-05-21T03:06:21.190Z,32.35
2023-05-21T03:07:21.195Z,32.38
2023-05-21T03:08:21.189Z,32.28
2023-05-21T03:09:21.170Z,32.30
2023-05-21T03:10:21.190Z,32.35
2023-05-21T03:11:21.157Z,32.34
2023-05-21T03:12:21.163Z,32.32
2023-05-21T03:13:21.205Z,32.35
2023-05-21T03:14:21.148Z,32.31
2023-05-21T03:15:21.139Z,32.32
2023-05-21T03:16:21.184Z,32.34
2023-05-21T03:17:21.126Z,32.38
2023-05-21T03:18:21.108Z,32.35
2023-05-21T03:19:21.164Z,32.39
2023-05-21T03:20:21.102Z,32.39
2023-05-21T03:21:21.095Z,32.42
2023-05-21T03:22:21.108Z,32.39
2023-05-21T03:23:21.082Z,32.38
2023-05-21T03:24:21.072Z,32.34
2023-05-21T03:25:21.071Z,32.41
2023-05-21T03:26:21.081Z,32.37
2023-05-21T03:27:21.052Z,32.34
2023-05-21T03:28:21.099Z,32.34
2023-05-21T03:29:21.046Z,32.37
2023-05-21T03:30:21.060Z,32.39
2023-05-21T03:31:21.063Z,32.39
2023-05-21T03:32:21.174Z,32.39
2023-05-21T03:33:21.059Z,32.39
2023-05-21T03:34:21.020Z,32.42
2023-05-21T03:35:21.031Z,32.43
2023-05-21T03:36:21.016Z,32.42
2023-05-21T03:37:20.986Z,32.43
2023-05-21T03:38:21.021Z,32.43
2023-05-21T03:39:20.992Z,32.43
2023-05-21T03:40:21.020Z,32.39
2023-05-21T03:41:21.003Z,32.41
2023-05-21T03:42:20.999Z,32.42
2023-05-21T03:43:21.003Z,32.36
2023-05-21T03:44:21.011Z,32.39
2023-05-21T03:45:21.062Z,32.41
2023-05-21T03:46:21.017Z,32.40
2023-05-21T03:47:21.065Z,32.39
2023-05-21T03:48:21.007Z,32.42
2023-05-21T03:49:20.996Z,32.38
2023-05-21T03:50:21.003Z,32.39
2023-05-21T03:51:21.020Z,32.41
2023-05-21T03:52:20.994Z,32.38
2023-05-21T03:53:20.983Z,32.39
2023-05-21T03:54:20.996Z,32.38
2023-05-21T03:55:21.055Z,32.41
2023-05-21T03:56:20.989Z,32.35
2023-05-21T03:57:20.995Z,32.42
2023-05-21T03:58:20.992Z,32.41
2023-05-21T03:59:21.002Z,32.39
2023-05-21T04:00:21.039Z,32.39
2023-05-21T04:01:21.056Z,32.42
2023-05-21T04:02:21.164Z,32.38
2023-05-21T04:03:21.171Z,32.46
2023-05-21T04:04:21.161Z,32.45
2023-05-21T04:05:21.129Z,32.42
2023-05-21T04:06:21.095Z,32.39
2023-05-21T04:07:21.104Z,32.42
2023-05-21T04:08:21.129Z,32.42
2023-05-21T04:09:21.100Z,32.39
2023-05-21T04:10:21.135Z,32.36
2023-05-21T04:11:21.111Z,32.38
2023-05-21T04:12:21.153Z,32.39
2023-05-21T04:13:21.133Z,32.41
2023-05-21T04:14:21.141Z,32.40
2023-05-21T04:15:21.192Z,32.42
2023-05-21T04:16:21.207Z,32.43
2023-05-21T04:17:21.303Z,32.46
2023-05-21T04:18:21.165Z,32.50
2023-05-21T04:19:21.276Z,32.46
2023-05-21T04:20:21.203Z,32.49
2023-05-21T04:21:21.171Z,32.46
2023-05-21T04:22:21.184Z,32.47
2023-05-21T04:23:21.202Z,32.46
2023-05-21T04:24:21.219Z,32.47
2023-05-21T04:25:21.240Z,32.45
2023-05-21T04:26:21.206Z,32.46
2023-05-21T04:27:21.244Z,32.48
2023-05-21T04:28:21.251Z,32.49
2023-05-21T04:29:21.277Z,32.47
2023-05-21T04:30:21.239Z,32.46
2023-05-21T04:31:21.290Z,32.50
2023-05-21T04:32:21.270Z,32.49
2023-05-21T04:33:21.282Z,32.45
2023-05-21T04:34:21.248Z,32.47
2023-05-21T04:35:21.240Z,32.46
2023-05-21T04:36:21.246Z,32.47
2023-05-21T04:37:21.235Z,32.49
2023-05-21T04:38:21.257Z,32.46
2023-05-21T04:39:21.248Z,32.47
2023-05-21T04:40:21.272Z,32.40
2023-05-21T04:41:21.729Z,32.42
2023-05-21T04:42:21.248Z,32.42
2023-05-21T04:43:21.261Z,32.39
2023-05-21T04:44:21.306Z,32.43
2023-05-21T04:45:21.401Z,32.45
2023-05-21T04:46:21.296Z,32.45
2023-05-21T04:47:21.306Z,32.40
2023-05-21T04:48:21.295Z,32.40
2023-05-21T04:49:21.296Z,32.39
2023-05-21T04:50:21.326Z,32.39
2023-05-21T04:51:21.307Z,32.43
2023-05-21T04:52:21.333Z,32.42
2023-05-21T04:53:21.338Z,32.43
2023-05-21T04:54:21.339Z,32.42
2023-05-21T04:55:21.389Z,32.42
2023-05-21T04:56:21.377Z,32.42
2023-05-21T04:57:21.368Z,32.39
2023-05-21T04:58:21.373Z,32.40
2023-05-21T04:59:21.379Z,32.45
2023-05-21T05:00:21.379Z,32.47
2023-05-21T05:01:21.577Z,32.47
2023-05-21T05:02:21.441Z,32.45
2023-05-21T05:03:21.454Z,32.50
2023-05-21T05:04:21.387Z,32.47
2023-05-21T05:05:21.417Z,32.49
2023-05-21T05:06:21.460Z,32.49
2023-05-21T05:07:21.403Z,32.48
2023-05-21T05:08:21.399Z,32.50
2023-05-21T05:09:21.418Z,32.43
2023-05-21T05:10:21.427Z,32.50
2023-05-21T05:11:21.426Z,32.46
2023-05-21T05:12:21.406Z,32.52
2023-05-21T05:13:21.429Z,32.45
2023-05-21T05:14:21.433Z,32.45
2023-05-21T05:15:21.443Z,32.47
2023-05-21T05:16:21.431Z,32.46
2023-05-21T05:17:21.409Z,32.40
2023-05-21T05:18:21.418Z,32.39
2023-05-21T05:19:21.470Z,32.46
2023-05-21T05:20:21.447Z,32.46
2023-05-21T05:21:21.429Z,32.42
2023-05-21T05:22:21.427Z,32.48
2023-05-21T05:23:21.410Z,32.49
2023-05-21T05:24:21.422Z,32.46
2023-05-21T05:25:21.422Z,32.51
2023-05-21T05:26:21.462Z,32.52
2023-05-21T05:27:21.421Z,32.53
2023-05-21T05:28:21.423Z,32.56
2023-05-21T05:29:21.413Z,32.61
2023-05-21T05:30:21.424Z,32.69
2023-05-21T05:31:21.511Z,32.65
2023-05-21T05:32:21.476Z,32.73
2023-05-21T05:33:21.426Z,32.73
2023-05-21T05:34:21.415Z,32.75
2023-05-21T05:35:21.478Z,32.84
2023-05-21T05:36:21.429Z,32.87
2023-05-21T05:37:21.458Z,32.94
2023-05-21T05:38:21.441Z,32.98
2023-05-21T05:39:21.443Z,33.10
2023-05-21T05:40:21.465Z,33.11
2023-05-21T05:41:21.480Z,33.13
2023-05-21T05:42:21.440Z,33.32
2023-05-21T05:43:21.426Z,33.45
2023-05-21T05:44:21.431Z,33.59
2023-05-21T05:45:21.443Z,33.66
2023-05-21T05:46:21.479Z,33.74
2023-05-21T05:47:21.447Z,33.86
2023-05-21T05:48:21.425Z,34.00
2023-05-21T05:49:21.426Z,34.05
2023-05-21T05:50:21.450Z,34.15
2023-05-21T05:51:21.509Z,34.24
2023-05-21T05:52:21.433Z,34.38
2023-05-21T05:53:21.447Z,34.43
2023-05-21T05:54:21.431Z,34.42
2023-05-21T05:55:21.434Z,34.42
2023-05-21T05:56:21.453Z,34.52
2023-05-21T05:57:21.463Z,34.48
2023-05-21T05:58:21.437Z,34.50
2023-05-21T05:59:21.440Z,34.50
2023-05-21T06:00:21.444Z,34.50
2023-05-21T06:01:21.449Z,34.48
2023-05-21T06:02:21.556Z,34.48
2023-05-21T06:03:21.526Z,34.42
2023-05-21T06:04:21.450Z,34.46
2023-05-21T06:05:21.511Z,34.39
2023-05-21T06:06:21.556Z,34.31
2023-05-21T06:07:21.480Z,34.31
2023-05-21T06:08:21.482Z,34.28
2023-05-21T06:09:21.521Z,34.25
2023-05-21T06:10:21.581Z,34.25
2023-05-21T06:11:21.513Z,34.19
2023-05-21T06:12:21.527Z,34.20
2023-05-21T06:13:21.522Z,34.15
2023-05-21T06:14:21.536Z,34.14
2023-05-21T06:15:21.522Z,34.03
2023-05-21T06:16:21.567Z,33.98
2023-05-21T06:17:21.609Z,33.97
2023-05-21T06:18:21.541Z,34.02
2023-05-21T06:19:21.558Z,33.94
2023-05-21T06:20:21.561Z,33.91
2023-05-21T06:21:21.538Z,33.91
2023-05-21T06:22:23.067Z,33.88
2023-05-21T06:23:21.562Z,33.82
2023-05-21T06:24:21.536Z,33.79
2023-05-21T06:25:21.541Z,33.75
2023-05-21T06:26:21.504Z,33.71
2023-05-21T06:27:21.528Z,33.68
2023-05-21T06:28:21.480Z,33.68
2023-05-21T06:29:21.516Z,33.72
2023-05-21T06:30:21.481Z,33.66
2023-05-21T06:31:21.482Z,33.66
2023-05-21T06:32:21.523Z,33.65
2023-05-21T06:33:21.556Z,33.60
2023-05-21T06:34:21.457Z,33.59
2023-05-21T06:35:21.461Z,33.59
2023-05-21T06:36:21.428Z,33.58
2023-05-21T06:37:21.438Z,33.50
2023-05-21T06:38:21.414Z,33.53
2023-05-21T06:39:21.437Z,33.50
2023-05-21T06:40:21.481Z,33.56
2023-05-21T06:41:21.396Z,33.49
2023-05-21T06:42:21.420Z,33.50
2023-05-21T06:43:21.389Z,33.52
2023-05-21T06:44:21.372Z,33.43
2023-05-21T06:45:21.424Z,33.49
2023-05-21T06:46:21.408Z,33.46
2023-05-21T06:47:21.366Z,33.45
2023-05-21T06:48:21.382Z,33.42
2023-05-21T06:49:21.345Z,33.44
2023-05-21T06:50:21.372Z,33.40
2023-05-21T06:51:21.351Z,33.40
2023-05-21T06:52:21.315Z,33.38
2023-05-21T06:53:21.314Z,33.32
2023-05-21T06:54:21.312Z,33.37
2023-05-21T06:55:21.333Z,33.36
2023-05-21T06:56:21.314Z,33.33
2023-05-21T06:57:21.288Z,33.34
2023-05-21T06:58:21.289Z,33.35
2023-05-21T06:59:21.285Z,33.35
2023-05-21T07:00:21.312Z,33.40
2023-05-21T07:01:21.284Z,33.51
2023-05-21T07:02:21.309Z,33.53
2023-05-21T07:03:21.368Z,33.57
2023-05-21T07:04:21.266Z,33.60
2023-05-21T07:05:21.253Z,33.55
2023-05-21T07:06:21.246Z,33.65
2023-05-21T07:07:21.229Z,33.70
2023-05-21T07:08:21.231Z,33.78
2023-05-21T07:09:21.230Z,33.78
2023-05-21T07:10:21.217Z,33.83
2023-05-21T07:11:21.221Z,33.80
2023-05-21T07:12:21.196Z,33.88
2023-05-21T07:13:21.201Z,33.89
2023-05-21T07:14:21.195Z,33.83
2023-05-21T07:15:21.180Z,33.87
2023-05-21T07:16:21.182Z,33.85
2023-05-21T07:17:21.179Z,33.84
2023-05-21T07:18:21.180Z,33.96
2023-05-21T07:19:21.211Z,33.90
2023-05-21T07:20:21.148Z,34.00
2023-05-21T07:21:21.146Z,34.03
2023-05-21T07:22:21.149Z,34.06
2023-05-21T07:23:21.142Z,33.98
2023-05-21T07:24:21.150Z,34.07
2023-05-21T07:25:21.133Z,34.03
2023-05-21T07:26:21.117Z,34.03
2023-05-21T07:27:25.876Z,34.10
2023-05-21T07:28:22.104Z,34.15
2023-05-21T07:29:21.097Z,34.25
2023-05-21T07:30:21.096Z,34.35
2023-05-21T07:31:21.090Z,34.43
2023-05-21T07:32:21.086Z,34.48
2023-05-21T07:33:21.062Z,34.51
2023-05-21T07:34:21.059Z,34.41
2023-05-21T07:35:21.059Z,34.53
2023-05-21T07:36:21.062Z,34.45
2023-05-21T07:37:21.086Z,34.52
2023-05-21T07:38:21.032Z,34.51
2023-05-21T07:39:21.025Z,34.50
2023-05-21T07:40:21.041Z,34.52
2023-05-21T07:41:21.105Z,34.34
2023-05-21T07:42:21.010Z,34.43
2023-05-21T07:43:21.022Z,34.47
2023-05-21T07:44:20.997Z,34.43
2023-05-21T07:45:21.001Z,34.50
2023-05-21T07:46:21.039Z,34.42
2023-05-21T07:47:21.018Z,34.43
2023-05-21T07:48:20.990Z,34.60
2023-05-21T07:49:20.963Z,34.72
2023-05-21T07:50:20.970Z,34.72
2023-05-21T07:51:20.976Z,34.67
2023-05-21T07:52:21.072Z,34.64
2023-05-21T07:53:21.001Z,34.52
2023-05-21T07:54:21.009Z,34.55
2023-05-21T07:55:21.026Z,34.51
2023-05-21T07:56:21.047Z,34.42
2023-05-21T07:57:21.075Z,34.28
2023-05-21T07:58:21.086Z,34.19
2023-05-21T07:59:21.087Z,34.12
2023-05-21T08:00:21.095Z,34.10
2023-05-21T08:01:21.112Z,34.01
2023-05-21T08:02:21.153Z,34.00
2023-05-21T08:03:21.204Z,34.05
2023-05-21T08:04:21.205Z,34.02
2023-05-21T08:05:21.142Z,34.01
2023-05-21T08:06:21.164Z,33.87
2023-05-21T08:07:21.178Z,33.93
2023-05-21T08:08:21.200Z,34.00
2023-05-21T08:09:21.220Z,34.00
2023-05-21T08:10:21.262Z,33.96
2023-05-21T08:11:21.280Z,33.92
2023-05-21T08:12:21.282Z,33.93
2023-05-21T08:13:21.297Z,33.96
2023-05-21T08:14:21.318Z,33.93
2023-05-21T08:15:21.326Z,33.86
2023-05-21T08:16:21.391Z,34.00
2023-05-21T08:17:21.390Z,34.13
2023-05-21T08:18:21.409Z,34.32
2023-05-21T08:19:21.473Z,34.46
2023-05-21T08:20:21.452Z,34.45
2023-05-21T08:21:21.460Z,34.53
2023-05-21T08:22:21.473Z,34.58
2023-05-21T08:23:21.502Z,34.60
2023-05-21T08:24:21.519Z,34.67
2023-05-21T08:25:21.552Z,34.72
2023-05-21T08:26:21.575Z,34.76
2023-05-21T08:27:21.590Z,34.77
2023-05-21T08:28:21.617Z,34.54
2023-05-21T08:29:21.622Z,34.74
2023-05-21T08:30:21.664Z,34.84
2023-05-21T08:31:21.740Z,34.81
2023-05-21T08:32:21.742Z,34.89
2023-05-21T08:33:21.715Z,34.77
2023-05-21T08:34:21.753Z,34.68
2023-05-21T08:35:21.769Z,34.72
2023-05-21T08:36:21.789Z,34.74
2023-05-21T08:37:21.813Z,34.72
2023-05-21T08:38:21.819Z,34.65
2023-05-21T08:39:21.840Z,34.55
2023-05-21T08:40:21.936Z,34.55
2023-05-21T08:41:21.868Z,34.57
2023-05-21T08:42:32.773Z,34.47
2023-05-21T08:43:22.868Z,34.48
2023-05-21T08:44:21.876Z,34.55
2023-05-21T08:45:21.851Z,34.52
2023-05-21T08:46:21.965Z,34.67
2023-05-21T08:47:21.860Z,34.74
2023-05-21T08:48:21.839Z,34.72
2023-05-21T08:49:21.823Z,34.62
2023-05-21T08:50:21.813Z,34.65
2023-05-21T08:51:21.857Z,34.76
2023-05-21T08:52:21.825Z,34.74
2023-05-21T08:53:28.151Z,34.59
2023-05-21T08:54:22.805Z,34.56
2023-05-21T08:55:21.783Z,34.59
2023-05-21T08:56:21.814Z,34.50
2023-05-21T08:57:21.771Z,34.50
2023-05-21T08:58:21.780Z,34.37
2023-05-21T08:59:21.784Z,34.34
2023-05-21T09:00:21.757Z,34.36
2023-05-21T09:01:23.394Z,34.41
2023-05-21T09:02:21.799Z,34.40
2023-05-21T09:03:21.836Z,34.47
2023-05-21T09:04:22.092Z,34.32
2023-05-21T09:05:21.720Z,34.46
2023-05-21T09:06:21.718Z,34.45
2023-05-21T09:07:21.715Z,34.46
2023-05-21T09:08:21.706Z,34.39
2023-05-21T09:09:21.722Z,34.53
2023-05-21T09:10:21.698Z,34.50
2023-05-21T09:11:21.681Z,34.42
2023-05-21T09:12:21.684Z,34.47
2023-05-21T09:13:21.672Z,34.34
2023-05-21T09:14:21.655Z,34.30
2023-05-21T09:15:21.657Z,34.27
2023-05-21T09:16:21.716Z,34.16
2023-05-21T09:17:21.643Z,34.17
2023-05-21T09:18:21.632Z,34.19
2023-05-21T09:19:21.663Z,34.14
2023-05-21T09:20:21.615Z,34.09
2023-05-21T09:21:21.650Z,34.08
2023-05-21T09:22:21.603Z,34.09
2023-05-21T09:23:21.618Z,34.04
2023-05-21T09:24:21.603Z,34.06
2023-05-21T09:25:21.607Z,34.05
2023-05-21T09:26:21.591Z,34.03
2023-05-21T09:27:21.599Z,34.03
2023-05-21T09:28:21.563Z,33.99
2023-05-21T09:29:21.563Z,33.98
2023-05-21T09:30:26.013Z,34.02
2023-05-21T09:31:22.619Z,33.96
2023-05-21T09:32:21.533Z,33.97
2023-05-21T09:33:21.535Z,33.97
2023-05-21T09:34:21.540Z,33.93
2023-05-21T09:35:21.527Z,33.89
2023-05-21T09:36:21.513Z,33.89
2023-05-21T09:37:27.605Z,33.87
2023-05-21T09:38:22.529Z,33.92
2023-05-21T09:39:21.503Z,33.93
2023-05-21T09:40:21.489Z,33.90
2023-05-21T09:41:22.342Z,33.89
2023-05-21T09:42:21.473Z,33.90
2023-05-21T09:43:21.476Z,33.90
2023-05-21T09:44:21.472Z,33.90
2023-05-21T09:45:21.528Z,33.88
2023-05-21T09:46:21.490Z,33.88
2023-05-21T09:47:21.526Z,33.88
2023-05-21T09:48:21.446Z,33.83
2023-05-21T09:49:21.439Z,33.83
2023-05-21T09:50:21.427Z,33.87
2023-05-21T09:51:21.429Z,33.88
2023-05-21T09:52:21.420Z,33.84
2023-05-21T09:53:21.404Z,33.83
2023-05-21T09:54:21.397Z,33.84
2023-05-21T09:55:21.392Z,33.83
2023-05-21T09:56:21.397Z,33.86
2023-05-21T09:57:21.381Z,33.85
2023-05-21T09:58:21.399Z,33.84
2023-05-21T09:59:21.381Z,33.84
2023-05-21T10:00:21.373Z,33.81
2023-05-21T10:01:21.358Z,33.83
2023-05-21T10:02:21.465Z,33.80
2023-05-21T10:03:21.408Z,33.78
2023-05-21T10:04:21.368Z,33.83
2023-05-21T10:05:21.322Z,33.82
2023-05-21T10:06:21.309Z,33.77
2023-05-21T10:07:21.307Z,33.82
2023-05-21T10:08:21.302Z,33.74
2023-05-21T10:09:21.306Z,33.78
2023-05-21T10:10:21.317Z,33.67
2023-05-21T10:11:21.281Z,33.62
2023-05-21T10:12:21.284Z,33.65
2023-05-21T10:13:21.282Z,33.60
2023-05-21T10:14:21.280Z,33.62
2023-05-21T10:15:21.252Z,33.71
2023-05-21T10:16:21.301Z,33.60
2023-05-21T10:17:21.275Z,33.60
2023-05-21T10:18:21.242Z,33.65
2023-05-21T10:19:21.307Z,33.65
2023-05-21T10:20:21.232Z,33.66
2023-05-21T10:21:21.212Z,33.62
2023-05-21T10:22:21.230Z,33.63
2023-05-21T10:23:21.224Z,33.66
2023-05-21T10:24:21.219Z,33.63
2023-05-21T10:25:21.207Z,33.63
2023-05-21T10:26:21.236Z,33.57
2023-05-21T10:27:21.221Z,33.56
2023-05-21T10:28:21.238Z,33.60
2023-05-21T10:29:21.247Z,33.59
2023-05-21T10:30:21.241Z,33.57
2023-05-21T10:31:21.256Z,33.50
2023-05-21T10:32:21.315Z,33.46
2023-05-21T10:33:21.301Z,33.50
2023-05-21T10:34:21.252Z,33.47
2023-05-21T10:35:21.251Z,33.45
2023-05-21T10:36:21.252Z,33.49
2023-05-21T10:37:21.252Z,33.49
2023-05-21T10:38:21.249Z,33.45
2023-05-21T10:39:21.250Z,33.45
2023-05-21T10:40:21.263Z,33.43
2023-05-21T10:41:21.269Z,33.48
2023-05-21T10:42:21.265Z,33.49
2023-05-21T10:43:21.257Z,33.52
2023-05-21T10:44:21.267Z,33.53
2023-05-21T10:45:21.264Z,33.56
2023-05-21T10:46:21.274Z,33.55
2023-05-21T10:47:21.279Z,33.55
2023-05-21T10:48:21.302Z,33.51
2023-05-21T10:49:21.289Z,33.42
2023-05-21T10:50:21.297Z,33.34
2023-05-21T10:51:21.315Z,33.41
2023-05-21T10:52:21.325Z,33.40
2023-05-21T10:53:21.354Z,33.44
2023-05-21T10:54:21.358Z,33.38
2023-05-21T10:55:21.375Z,33.38
2023-05-21T10:56:21.388Z,33.39
2023-05-21T10:57:21.413Z,33.40
2023-05-21T10:58:21.427Z,33.38
2023-05-21T10:59:21.442Z,33.46
2023-05-21T11:00:21.480Z,33.41
2023-05-21T11:01:21.605Z,33.43
2023-05-21T11:02:21.566Z,33.36
2023-05-21T11:03:21.615Z,33.36
2023-05-21T11:04:21.605Z,33.31
2023-05-21T11:05:21.612Z,33.28
2023-05-21T11:06:21.640Z,33.27
2023-05-21T11:07:21.696Z,33.21
2023-05-21T11:08:21.719Z,33.29
2023-05-21T11:09:21.738Z,33.27
2023-05-21T11:10:21.774Z,33.30
2023-05-21T11:11:21.848Z,33.24
2023-05-21T11:12:21.950Z,33.27
2023-05-21T11:13:21.890Z,33.38
2023-05-21T11:14:21.891Z,33.35
2023-05-21T11:15:21.927Z,33.35
2023-05-21T11:16:22.083Z,33.31
2023-05-21T11:17:22.021Z,33.37
2023-05-21T11:18:21.984Z,33.35
2023-05-21T11:19:22.066Z,33.38
2023-05-21T11:20:22.061Z,33.40
2023-05-21T11:21:22.069Z,33.38
2023-05-21T11:22:22.126Z,33.37
2023-05-21T11:23:22.137Z,33.40
2023-05-21T11:24:22.143Z,33.43
2023-05-21T11:25:22.272Z,33.45
2023-05-21T11:26:22.204Z,33.44
2023-05-21T11:27:22.179Z,33.48
2023-05-21T11:28:22.249Z,33.48
2023-05-21T11:29:22.234Z,33.44
2023-05-21T11:30:22.250Z,33.43
2023-05-21T11:31:22.357Z,33.47
2023-05-21T11:32:22.326Z,33.39
2023-05-21T11:33:22.364Z,33.44
2023-05-21T11:34:22.386Z,33.40
2023-05-21T11:35:22.398Z,33.44
2023-05-21T11:36:22.421Z,33.38
2023-05-21T11:37:22.414Z,33.46
2023-05-21T11:38:22.435Z,33.54
2023-05-21T11:39:22.465Z,33.53
2023-05-21T11:40:22.513Z,33.53
2023-05-21T11:41:22.532Z,33.60
2023-05-21T11:42:22.555Z,33.62
2023-05-21T11:43:22.584Z,33.58
2023-05-21T11:44:22.614Z,33.54
2023-05-21T11:45:22.660Z,33.59
2023-05-21T11:46:22.729Z,33.64
2023-05-21T11:47:22.837Z,33.76
2023-05-21T11:48:25.014Z,33.88
2023-05-21T11:49:22.774Z,33.83
2023-05-21T11:50:22.742Z,33.73
2023-05-21T11:51:22.743Z,33.66
2023-05-21T11:52:22.742Z,33.58
2023-05-21T11:53:22.731Z,33.48
2023-05-21T11:54:22.735Z,33.44
2023-05-21T11:55:22.718Z,33.38
2023-05-21T11:56:22.713Z,33.38
2023-05-21T11:57:22.716Z,33.35
2023-05-21T11:58:22.698Z,33.33
2023-05-21T11:59:22.694Z,33.48
2023-05-21T12:00:22.686Z,33.38
2023-05-21T12:01:22.692Z,33.43
2023-05-21T12:02:22.825Z,33.72
2023-05-21T12:03:22.816Z,34.12
2023-05-21T12:04:22.653Z,34.65
2023-05-21T12:05:22.704Z,35.19
2023-05-21T12:06:22.810Z,35.54
2023-05-21T12:07:22.632Z,35.55
2023-05-21T12:08:22.625Z,35.37
2023-05-21T12:09:22.640Z,35.42
2023-05-21T12:10:22.684Z,35.15
2023-05-21T12:11:22.640Z,35.28
2023-05-21T12:12:22.648Z,35.05
2023-05-21T12:13:22.619Z,34.70
2023-05-21T12:14:22.633Z,34.55
2023-05-21T12:15:22.582Z,34.55
2023-05-21T12:16:22.615Z,34.38
2023-05-21T12:17:22.570Z,34.37
2023-05-21T12:18:22.609Z,34.37
2023-05-21T12:19:22.637Z,34.30
2023-05-21T12:20:22.623Z,34.24
2023-05-21T12:21:22.648Z,34.12
2023-05-21T12:22:22.679Z,34.16
2023-05-21T12:23:22.713Z,34.09
2023-05-21T12:24:22.755Z,34.09
2023-05-21T12:25:22.822Z,34.08
2023-05-21T12:26:22.845Z,34.05
2023-05-21T12:27:22.892Z,33.98
2023-05-21T12:28:22.896Z,34.05
2023-05-21T12:29:22.988Z,33.93
2023-05-21T12:30:22.947Z,33.91
2023-05-21T12:31:22.999Z,33.87
2023-05-21T12:32:23.013Z,33.76
2023-05-21T12:33:25.112Z,33.80
2023-05-21T12:34:22.999Z,33.81
2023-05-21T12:35:23.490Z,33.76
2023-05-21T12:36:23.050Z,33.76
2023-05-21T12:37:23.047Z,33.71
2023-05-21T12:38:23.077Z,33.71
2023-05-21T12:39:23.132Z,33.78
2023-05-21T12:40:23.151Z,33.80
2023-05-21T12:41:23.188Z,33.81
2023-05-21T12:42:23.226Z,33.94
2023-05-21T12:43:23.260Z,34.03
2023-05-21T12:44:23.292Z,34.13
2023-05-21T12:45:23.395Z,34.25
2023-05-21T12:46:23.587Z,34.30
2023-05-21T12:47:23.477Z,34.35
2023-05-21T12:48:23.439Z,34.54
2023-05-21T12:49:23.523Z,34.63
2023-05-21T12:50:23.551Z,34.68
2023-05-21T12:51:23.578Z,34.69
2023-05-21T12:52:23.631Z,34.72